createdAt,value
2016-09-16T00:00:53.686Z,0
2016-09-16T00:01:54.364Z,0
2016-09-16T00:02:55.012Z,0
2016-09-16T00:03:55.679Z,0
2016-09-16T00:04:56.305Z,0
2016-09-16T00:05:57.013Z,0
2016-09-16T00:06:57.708Z,0
2016-09-16T00:07:58.336Z,0
2016-09-16T00:08:59.002Z,0
2016-09-16T00:09:59.649Z,0
2016-09-16T00:11:00.278Z,0
2016-09-16T00:12:00.934Z,0
2016-09-16T00:13:01.627Z,0
2016-09-16T00:14:02.264Z,0
2016-09-16T00:15:02.907Z,0
2016-09-16T00:16:03.549Z,0
2016-09-16T00:17:04.193Z,0
2016-09-16T00:18:04.830Z,0
2016-09-16T00:19:05.469Z,0
2016-09-16T00:20:06.107Z,0
2016-09-16T00:21:06.744Z,0
2016-09-16T00:22:07.407Z,0
2016-09-16T00:23:08.058Z,0
2016-09-16T00:24:08.699Z,0
2016-09-16T00:25:09.410Z,0
2016-09-16T00:26:10.109Z,0
2016-09-16T00:27:10.753Z,0
2016-09-16T00:28:11.399Z,0
2016-09-16T00:29:12.061Z,0
2016-09-16T00:30:12.705Z,0
2016-09-16T00:31:13.357Z,0
2016-09-16T00:32:14.002Z,0
2016-09-16T00:33:14.633Z,0
2016-09-16T00:34:15.253Z,0
2016-09-16T00:35:15.898Z,0
2016-09-16T00:36:16.547Z,0
2016-09-16T00:37:17.219Z,0
2016-09-16T00:38:17.896Z,0
2016-09-16T00:39:18.536Z,0
2016-09-16T00:40:19.177Z,0
2016-09-16T00:41:19.825Z,0
2016-09-16T00:42:20.456Z,0
2016-09-16T00:43:21.089Z,0
2016-09-16T00:44:21.720Z,0
2016-09-16T00:45:22.362Z,0
2016-09-16T00:46:23.008Z,0
2016-09-16T00:47:23.649Z,0
2016-09-16T00:48:24.291Z,0
2016-09-16T00:49:24.933Z,0
2016-09-16T00:50:25.586Z,0
2016-09-16T00:51:26.216Z,0
2016-09-16T00:52:26.853Z,0
2016-09-16T00:53:27.486Z,0
2016-09-16T00:54:28.131Z,0
2016-09-16T00:55:28.770Z,0
2016-09-16T00:56:29.409Z,0
2016-09-16T00:57:30.073Z,0
2016-09-16T00:58:30.717Z,0
2016-09-16T00:59:31.346Z,0
2016-09-16T01:00:31.985Z,0
2016-09-16T01:01:32.623Z,0
2016-09-16T01:02:33.253Z,0
2016-09-16T01:03:33.890Z,0
2016-09-16T01:04:34.532Z,0
2016-09-16T01:05:35.174Z,0
2016-09-16T01:06:35.829Z,0
2016-09-16T01:07:36.487Z,0
2016-09-16T01:08:37.120Z,0
2016-09-16T01:09:37.791Z,0
2016-09-16T01:10:38.462Z,0
2016-09-16T01:11:39.129Z,0
2016-09-16T01:12:39.766Z,0
2016-09-16T01:13:40.414Z,0
2016-09-16T01:14:41.050Z,0
2016-09-16T01:15:41.703Z,0
2016-09-16T01:16:42.338Z,0
2016-09-16T01:17:42.971Z,0
2016-09-16T01:18:43.642Z,0
2016-09-16T01:19:44.281Z,0
2016-09-16T01:20:44.930Z,0
2016-09-16T01:21:45.577Z,0
2016-09-16T01:22:46.231Z,0
2016-09-16T01:23:46.886Z,0
2016-09-16T01:24:47.513Z,0
2016-09-16T01:25:48.171Z,0
2016-09-16T01:26:48.816Z,0
2016-09-16T01:27:49.518Z,0
2016-09-16T01:28:50.153Z,0
2016-09-16T01:29:50.780Z,0
2016-09-16T01:30:51.426Z,0
2016-09-16T01:31:52.058Z,0
2016-09-16T01:32:52.711Z,0
2016-09-16T01:33:53.373Z,0
2016-09-16T01:34:54.019Z,0
2016-09-16T01:35:54.657Z,0
2016-09-16T01:36:55.296Z,0
2016-09-16T01:37:55.957Z,0
2016-09-16T01:38:56.616Z,0
2016-09-16T01:39:57.254Z,0
2016-09-16T01:40:57.888Z,0
2016-09-16T01:41:58.522Z,0
2016-09-16T01:42:59.154Z,0
2016-09-16T01:43:59.817Z,0
2016-09-16T01:45:00.465Z,0
2016-09-16T01:46:01.099Z,0
2016-09-16T01:47:01.747Z,0
2016-09-16T01:48:02.401Z,0
2016-09-16T01:49:03.059Z,0
2016-09-16T01:50:03.705Z,0
2016-09-16T01:51:04.346Z,0
2016-09-16T01:52:04.984Z,0
2016-09-16T01:53:05.633Z,0
2016-09-16T01:54:06.270Z,0
2016-09-16T01:55:06.926Z,0
2016-09-16T01:56:07.567Z,0
2016-09-16T01:57:08.219Z,0
2016-09-16T01:58:08.867Z,0
2016-09-16T01:59:09.513Z,0
2016-09-16T02:00:10.156Z,0
2016-09-16T02:01:10.805Z,0
2016-09-16T02:02:11.445Z,0
2016-09-16T02:03:12.097Z,0
2016-09-16T02:04:12.737Z,0
2016-09-16T02:05:13.391Z,0
2016-09-16T02:06:14.041Z,0
2016-09-16T02:07:14.684Z,0
2016-09-16T02:08:15.303Z,0
2016-09-16T02:09:15.944Z,0
2016-09-16T02:10:16.596Z,0
2016-09-16T02:11:17.250Z,0
2016-09-16T02:12:17.923Z,0
2016-09-16T02:13:18.563Z,0
2016-09-16T02:14:19.206Z,0
2016-09-16T02:15:19.858Z,0
2016-09-16T02:16:20.501Z,0
2016-09-16T02:17:21.147Z,0
2016-09-16T02:18:21.814Z,0
2016-09-16T02:19:22.457Z,0
2016-09-16T02:20:23.110Z,0
2016-09-16T02:21:23.752Z,0
2016-09-16T02:22:24.399Z,0
2016-09-16T02:23:25.084Z,0
2016-09-16T02:24:25.703Z,0
2016-09-16T02:25:26.343Z,0
2016-09-16T02:26:26.996Z,0
2016-09-16T02:27:27.638Z,0
2016-09-16T02:28:28.301Z,0
2016-09-16T02:29:28.935Z,0
2016-09-16T02:30:29.592Z,0
2016-09-16T02:31:30.224Z,0
2016-09-16T02:32:30.864Z,0
2016-09-16T02:33:31.510Z,0
2016-09-16T02:34:32.150Z,0
2016-09-16T02:35:32.794Z,0
2016-09-16T02:36:33.445Z,0
2016-09-16T02:37:34.070Z,0
2016-09-16T02:38:34.705Z,0
2016-09-16T02:39:35.357Z,0
2016-09-16T02:40:36.033Z,0
2016-09-16T02:41:36.680Z,0
2016-09-16T02:42:37.317Z,0
2016-09-16T02:43:37.951Z,0
2016-09-16T02:44:38.589Z,0
2016-09-16T02:45:39.238Z,0
2016-09-16T02:46:39.886Z,0
2016-09-16T02:47:40.530Z,0
2016-09-16T02:48:41.177Z,0
2016-09-16T02:49:41.820Z,0
2016-09-16T02:50:42.484Z,0
2016-09-16T02:51:43.139Z,0
2016-09-16T02:52:43.780Z,0
2016-09-16T02:53:44.411Z,0
2016-09-16T02:54:45.062Z,0
2016-09-16T02:55:45.707Z,0
2016-09-16T02:56:46.364Z,0
2016-09-16T02:57:47.003Z,0
2016-09-16T02:58:47.663Z,0
2016-09-16T02:59:48.317Z,0
2016-09-16T03:00:48.973Z,0
2016-09-16T03:01:49.640Z,0
2016-09-16T03:02:50.294Z,0
2016-09-16T03:03:50.936Z,0
2016-09-16T03:04:51.596Z,0
2016-09-16T03:05:52.260Z,0
2016-09-16T03:06:52.893Z,0
2016-09-16T03:07:53.542Z,0
2016-09-16T03:08:54.176Z,0
2016-09-16T03:09:54.819Z,0
2016-09-16T03:10:55.457Z,0
2016-09-16T03:11:56.096Z,0
2016-09-16T03:12:56.750Z,0
2016-09-16T03:13:57.383Z,0
2016-09-16T03:14:58.004Z,0
2016-09-16T03:15:58.674Z,0
2016-09-16T03:16:59.335Z,0
2016-09-16T03:17:59.957Z,0
2016-09-16T03:19:00.619Z,0
2016-09-16T03:20:01.253Z,0
2016-09-16T03:21:01.882Z,0
2016-09-16T03:22:02.516Z,0
2016-09-16T03:23:03.167Z,0
2016-09-16T03:24:03.819Z,0
2016-09-16T03:25:04.476Z,0
2016-09-16T03:26:05.102Z,0
2016-09-16T03:27:05.799Z,0
2016-09-16T03:28:06.438Z,0
2016-09-16T03:29:07.087Z,0
2016-09-16T03:30:07.721Z,0
2016-09-16T03:31:08.385Z,0
2016-09-16T03:32:09.017Z,0
2016-09-16T03:33:09.648Z,0
2016-09-16T03:34:10.298Z,0
2016-09-16T03:35:10.960Z,0
2016-09-16T03:36:11.627Z,0
2016-09-16T03:37:12.312Z,0
2016-09-16T03:38:12.959Z,0
2016-09-16T03:39:13.600Z,0
2016-09-16T03:40:14.248Z,0
2016-09-16T03:41:14.892Z,0
2016-09-16T03:42:15.535Z,0
2016-09-16T03:43:16.176Z,0
2016-09-16T03:44:16.821Z,0
2016-09-16T03:45:17.457Z,0
2016-09-16T03:46:18.101Z,0
2016-09-16T03:47:18.733Z,0
2016-09-16T03:48:19.378Z,0
2016-09-16T03:49:20.022Z,0
2016-09-16T03:50:20.691Z,0
2016-09-16T03:51:21.332Z,0
2016-09-16T03:52:21.974Z,0
2016-09-16T03:53:22.626Z,0
2016-09-16T03:54:23.262Z,0
2016-09-16T03:55:23.913Z,0
2016-09-16T03:56:24.551Z,0
2016-09-16T03:57:25.206Z,0
2016-09-16T03:58:25.852Z,0
2016-09-16T03:59:26.502Z,0
2016-09-16T04:00:27.148Z,0
2016-09-16T04:01:27.793Z,0
2016-09-16T04:02:28.447Z,0
2016-09-16T04:03:29.097Z,0
2016-09-16T04:04:29.728Z,0
2016-09-16T04:05:30.372Z,0
2016-09-16T04:06:31.020Z,0
2016-09-16T04:07:31.669Z,0
2016-09-16T04:08:32.314Z,0
2016-09-16T04:09:32.956Z,0
2016-09-16T04:10:33.608Z,0
2016-09-16T04:11:34.247Z,0
2016-09-16T04:12:34.883Z,0
2016-09-16T04:13:35.513Z,0
2016-09-16T04:14:36.167Z,0
2016-09-16T04:15:36.815Z,0
2016-09-16T04:16:37.450Z,0
2016-09-16T04:17:38.110Z,0
2016-09-16T04:18:38.755Z,0
2016-09-16T04:19:39.416Z,4
2016-09-16T04:20:40.113Z,4
2016-09-16T04:21:40.774Z,0
2016-09-16T04:22:41.422Z,4
2016-09-16T04:23:42.077Z,4
2016-09-16T04:24:42.718Z,4
2016-09-16T04:25:43.343Z,4
2016-09-16T04:26:43.967Z,4
2016-09-16T04:27:44.619Z,4
2016-09-16T04:28:45.278Z,4
2016-09-16T04:29:45.913Z,4
2016-09-16T04:30:46.555Z,8
2016-09-16T04:31:47.200Z,12
2016-09-16T04:32:47.827Z,12
2016-09-16T04:33:48.474Z,16
2016-09-16T04:34:49.150Z,16
2016-09-16T04:35:49.853Z,20
2016-09-16T04:36:50.461Z,24
2016-09-16T04:37:51.112Z,28
2016-09-16T04:38:51.766Z,32
2016-09-16T04:39:52.392Z,40
2016-09-16T04:40:53.035Z,48
2016-09-16T04:41:53.677Z,60
2016-09-16T04:42:54.316Z,68
2016-09-16T04:43:54.955Z,80
2016-09-16T04:44:55.590Z,96
2016-09-16T04:45:56.228Z,112
2016-09-16T04:46:56.875Z,128
2016-09-16T04:47:57.525Z,144
2016-09-16T04:48:58.183Z,168
2016-09-16T04:49:58.807Z,188
2016-09-16T04:50:59.628Z,208
2016-09-16T04:52:00.932Z,228
2016-09-16T04:53:01.409Z,248
2016-09-16T04:54:02.076Z,268
2016-09-16T04:55:02.715Z,280
2016-09-16T04:56:03.362Z,300
2016-09-16T04:57:04.012Z,316
2016-09-16T04:58:04.643Z,336
2016-09-16T04:59:05.290Z,360
2016-09-16T05:00:05.977Z,380
2016-09-16T05:01:06.617Z,400
2016-09-16T05:02:07.262Z,424
2016-09-16T05:03:07.932Z,452
2016-09-16T05:04:08.583Z,484
2016-09-16T05:05:09.226Z,512
2016-09-16T05:06:09.860Z,544
2016-09-16T05:07:10.520Z,576
2016-09-16T05:08:11.177Z,612
2016-09-16T05:09:11.839Z,652
2016-09-16T05:10:12.478Z,704
2016-09-16T05:11:13.155Z,752
2016-09-16T05:12:13.814Z,800
2016-09-16T05:13:14.442Z,848
2016-09-16T05:14:15.099Z,892
2016-09-16T05:15:15.750Z,936
2016-09-16T05:16:16.395Z,972
2016-09-16T05:17:17.062Z,1012
2016-09-16T05:18:17.739Z,1064
2016-09-16T05:19:18.405Z,1112
2016-09-16T05:20:19.049Z,1164
2016-09-16T05:21:19.706Z,1216
2016-09-16T05:22:20.369Z,1256
2016-09-16T05:23:21.013Z,1300
2016-09-16T05:24:21.663Z,1344
2016-09-16T05:25:22.308Z,1388
2016-09-16T05:26:22.961Z,1424
2016-09-16T05:27:23.597Z,1452
2016-09-16T05:28:24.245Z,1476
2016-09-16T05:29:24.997Z,1480
2016-09-16T05:30:25.646Z,1476
2016-09-16T05:31:26.304Z,1472
2016-09-16T05:32:26.927Z,1460
2016-09-16T05:33:27.565Z,1456
2016-09-16T05:34:28.216Z,1464
2016-09-16T05:35:28.879Z,1492
2016-09-16T05:36:29.513Z,1560
2016-09-16T05:37:30.166Z,1632
2016-09-16T05:38:30.820Z,1696
2016-09-16T05:39:31.456Z,1760
2016-09-16T05:40:32.098Z,1844
2016-09-16T05:41:32.753Z,1932
2016-09-16T05:42:33.397Z,2004
2016-09-16T05:43:34.047Z,2076
2016-09-16T05:44:34.735Z,2144
2016-09-16T05:45:35.383Z,2176
2016-09-16T05:46:36.026Z,2240
2016-09-16T05:47:36.649Z,2324
2016-09-16T05:48:37.313Z,2436
2016-09-16T05:49:37.979Z,2616
2016-09-16T05:50:38.619Z,2864
2016-09-16T05:51:39.279Z,3116
2016-09-16T05:52:39.922Z,3272
2016-09-16T05:53:40.570Z,3420
2016-09-16T05:54:41.221Z,3528
2016-09-16T05:55:41.892Z,3564
2016-09-16T05:56:42.533Z,3672
2016-09-16T05:57:43.190Z,3836
2016-09-16T05:58:43.847Z,4004
2016-09-16T05:59:44.575Z,4200
2016-09-16T06:00:45.219Z,4364
2016-09-16T06:01:45.868Z,4496
2016-09-16T06:02:47.332Z,4584
2016-09-16T06:03:49.422Z,4728
2016-09-16T06:04:50.953Z,4712
2016-09-16T06:05:52.494Z,4580
2016-09-16T06:06:53.317Z,4476
2016-09-16T06:07:53.977Z,4420
2016-09-16T06:08:54.649Z,4420
2016-09-16T06:09:55.931Z,4508
2016-09-16T06:10:56.982Z,4608
2016-09-16T06:11:57.653Z,4668
2016-09-16T06:12:58.516Z,4688
2016-09-16T06:13:59.264Z,4684
2016-09-16T06:14:59.904Z,4672
2016-09-16T06:16:00.544Z,4676
2016-09-16T06:17:01.221Z,4816
2016-09-16T06:18:01.911Z,4936
2016-09-16T06:19:02.559Z,5116
2016-09-16T06:20:03.226Z,5364
2016-09-16T06:21:03.871Z,5600
2016-09-16T06:22:04.541Z,5856
2016-09-16T06:23:05.208Z,6172
2016-09-16T06:24:05.882Z,6588
2016-09-16T06:25:06.542Z,6932
2016-09-16T06:26:07.189Z,7120
2016-09-16T06:27:07.861Z,7140
2016-09-16T06:28:08.519Z,7100
2016-09-16T06:29:09.162Z,7124
2016-09-16T06:30:09.805Z,7360
2016-09-16T06:31:10.472Z,7568
2016-09-16T06:32:11.113Z,7696
2016-09-16T06:33:11.816Z,8020
2016-09-16T06:34:12.452Z,8328
2016-09-16T06:35:13.116Z,8544
2016-09-16T06:36:13.771Z,8468
2016-09-16T06:37:14.415Z,7892
2016-09-16T06:38:15.083Z,7840
2016-09-16T06:39:15.730Z,8360
2016-09-16T06:40:16.384Z,9568
2016-09-16T06:41:17.049Z,10264
2016-09-16T06:42:17.699Z,10232
2016-09-16T06:43:18.350Z,9160
2016-09-16T06:44:19.009Z,9732
2016-09-16T06:45:19.667Z,8168
2016-09-16T06:46:20.323Z,8328
2016-09-16T06:47:20.984Z,9432
2016-09-16T06:48:21.646Z,11580
2016-09-16T06:49:22.295Z,11796
2016-09-16T06:50:22.946Z,15360
2016-09-16T06:51:23.597Z,15616
2016-09-16T06:52:24.263Z,16800
2016-09-16T06:53:24.915Z,20352
2016-09-16T06:54:25.560Z,20000
2016-09-16T06:55:26.205Z,15968
2016-09-16T06:56:26.848Z,13468
2016-09-16T06:57:27.506Z,12172
2016-09-16T06:58:28.171Z,11672
2016-09-16T06:59:28.813Z,11528
2016-09-16T07:00:29.461Z,13612
2016-09-16T07:01:30.109Z,12916
2016-09-16T07:02:30.743Z,13032
2016-09-16T07:03:31.399Z,12812
2016-09-16T07:04:32.062Z,12428
2016-09-16T07:05:32.719Z,15168
2016-09-16T07:06:33.364Z,16896
2016-09-16T07:07:34.027Z,15712
2016-09-16T07:08:34.706Z,15616
2016-09-16T07:09:35.373Z,15328
2016-09-16T07:10:36.029Z,13932
2016-09-16T07:11:36.694Z,12848
2016-09-16T07:12:37.355Z,10376
2016-09-16T07:13:38.003Z,8956
2016-09-16T07:14:38.702Z,7760
2016-09-16T07:15:39.350Z,7268
2016-09-16T07:16:39.997Z,7076
2016-09-16T07:17:40.658Z,7268
2016-09-16T07:18:41.301Z,7664
2016-09-16T07:19:41.958Z,7300
2016-09-16T07:20:42.605Z,8012
2016-09-16T07:21:43.256Z,8364
2016-09-16T07:22:43.904Z,8832
2016-09-16T07:23:44.554Z,9012
2016-09-16T07:24:45.193Z,9048
2016-09-16T07:25:45.838Z,8936
2016-09-16T07:26:46.472Z,8988
2016-09-16T07:27:47.128Z,12912
2016-09-16T07:28:47.781Z,10008
2016-09-16T07:29:48.432Z,10880
2016-09-16T07:30:49.097Z,18176
2016-09-16T07:31:49.766Z,24832
2016-09-16T07:32:50.399Z,19040
2016-09-16T07:33:51.033Z,21504
2016-09-16T07:34:51.694Z,20800
2016-09-16T07:35:52.352Z,16064
2016-09-16T07:36:52.991Z,16896
2016-09-16T07:37:53.642Z,12312
2016-09-16T07:38:54.283Z,12816
2016-09-16T07:39:54.929Z,11844
2016-09-16T07:40:55.611Z,12044
2016-09-16T07:41:56.266Z,12660
2016-09-16T07:42:56.915Z,11656
2016-09-16T07:43:57.567Z,12212
2016-09-16T07:44:58.237Z,11288
2016-09-16T07:45:58.908Z,12228
2016-09-16T07:46:59.575Z,11612
2016-09-16T07:48:00.215Z,11748
2016-09-16T07:49:00.875Z,15476
2016-09-16T07:50:01.534Z,15580
2016-09-16T07:51:02.207Z,12540
2016-09-16T07:52:02.842Z,14676
2016-09-16T07:53:03.503Z,17952
2016-09-16T07:54:04.152Z,19936
2016-09-16T07:55:04.795Z,25472
2016-09-16T07:56:05.464Z,24640
2016-09-16T07:57:06.143Z,24416
2016-09-16T07:58:06.796Z,23168
2016-09-16T07:59:07.435Z,20064
2016-09-16T08:00:08.079Z,19616
2016-09-16T08:01:08.725Z,19712
2016-09-16T08:02:09.397Z,19104
2016-09-16T08:03:10.032Z,17376
2016-09-16T08:04:10.691Z,25888
2016-09-16T08:05:11.366Z,26496
2016-09-16T08:06:12.036Z,30080
2016-09-16T08:07:12.713Z,22336
2016-09-16T08:08:13.393Z,17408
2016-09-16T08:09:14.056Z,15284
2016-09-16T08:10:14.722Z,14132
2016-09-16T08:11:15.369Z,13284
2016-09-16T08:12:16.017Z,13160
2016-09-16T08:13:16.690Z,13728
2016-09-16T08:14:17.349Z,15152
2016-09-16T08:15:18.007Z,14888
2016-09-16T08:16:18.658Z,15424
2016-09-16T08:17:19.325Z,18624
2016-09-16T08:18:20.001Z,18240
2016-09-16T08:19:20.648Z,19680
2016-09-16T08:20:21.300Z,20352
2016-09-16T08:21:21.978Z,23328
2016-09-16T08:22:22.653Z,21952
2016-09-16T08:23:23.304Z,26368
2016-09-16T08:24:23.961Z,33856
2016-09-16T08:25:24.631Z,26048
2016-09-16T08:26:25.294Z,22432
2016-09-16T08:27:25.965Z,29024
2016-09-16T08:28:26.614Z,25792
2016-09-16T08:29:27.414Z,23168
2016-09-16T08:30:28.074Z,19808
2016-09-16T08:31:28.733Z,18432
2016-09-16T08:32:29.406Z,16992
2016-09-16T08:33:30.083Z,14840
2016-09-16T08:34:30.732Z,12676
2016-09-16T08:35:31.399Z,10400
2016-09-16T08:36:32.057Z,9992
2016-09-16T08:37:32.717Z,9940
2016-09-16T08:38:33.398Z,9996
2016-09-16T08:39:34.067Z,10540
2016-09-16T08:40:34.765Z,10824
2016-09-16T08:41:35.412Z,11152
2016-09-16T08:42:36.071Z,11488
2016-09-16T08:43:36.729Z,12552
2016-09-16T08:44:37.397Z,14492
2016-09-16T08:45:38.050Z,17344
2016-09-16T08:46:38.701Z,16160
2016-09-16T08:47:39.378Z,17024
2016-09-16T08:48:40.037Z,23616
2016-09-16T08:49:40.734Z,28704
2016-09-16T08:50:41.390Z,24640
2016-09-16T08:51:42.036Z,25504
2016-09-16T08:52:42.686Z,33696
2016-09-16T08:53:43.353Z,35104
2016-09-16T08:54:44.032Z,32992
2016-09-16T08:55:44.680Z,34368
2016-09-16T08:56:45.380Z,32256
2016-09-16T08:57:46.092Z,35808
2016-09-16T08:58:46.772Z,37696
2016-09-16T08:59:47.434Z,46016
2016-09-16T09:00:48.120Z,46656
2016-09-16T09:01:48.770Z,46304
2016-09-16T09:02:49.457Z,44864
2016-09-16T09:03:50.140Z,43712
2016-09-16T09:04:50.794Z,41536
2016-09-16T09:05:51.495Z,29184
2016-09-16T09:06:52.149Z,28672
2016-09-16T09:07:52.821Z,23744
2016-09-16T09:08:53.572Z,26368
2016-09-16T09:09:54.235Z,21344
2016-09-16T09:10:54.908Z,14304
2016-09-16T09:11:57.764Z,13832
2016-09-16T09:12:58.416Z,13280
2016-09-16T09:14:01.415Z,12640
2016-09-16T09:15:02.142Z,12492
2016-09-16T09:16:02.821Z,12404
2016-09-16T09:17:03.489Z,12396
2016-09-16T09:18:04.209Z,12204
2016-09-16T09:19:05.131Z,15088
2016-09-16T09:20:05.804Z,21952
2016-09-16T09:21:06.595Z,25696
2016-09-16T09:22:07.358Z,15712
2016-09-16T09:23:08.070Z,12296
2016-09-16T09:24:08.744Z,12604
2016-09-16T09:25:09.406Z,13212
2016-09-16T09:26:10.069Z,14136
2016-09-16T09:27:10.773Z,14908
2016-09-16T09:28:11.443Z,15152
2016-09-16T09:29:12.115Z,15492
2016-09-16T09:30:12.779Z,15696
2016-09-16T09:31:13.445Z,15556
2016-09-16T09:32:14.121Z,15252
2016-09-16T09:33:14.805Z,14860
2016-09-16T09:34:15.530Z,13996
2016-09-16T09:35:16.480Z,12860
2016-09-16T09:36:17.173Z,11892
2016-09-16T09:37:17.846Z,11224
2016-09-16T09:38:18.522Z,11016
2016-09-16T09:39:19.204Z,11064
2016-09-16T09:40:19.861Z,11296
2016-09-16T09:41:20.530Z,11788
2016-09-16T09:42:21.190Z,12228
2016-09-16T09:43:21.879Z,12488
2016-09-16T09:44:22.544Z,12584
2016-09-16T09:45:23.230Z,12548
2016-09-16T09:46:24.698Z,12264
2016-09-16T09:47:25.515Z,11968
2016-09-16T09:48:26.325Z,11764
2016-09-16T09:49:27.147Z,11836
2016-09-16T09:50:27.898Z,12220
2016-09-16T09:51:28.567Z,12848
2016-09-16T09:52:29.328Z,13384
2016-09-16T09:53:30.037Z,13816
2016-09-16T09:54:30.662Z,13968
2016-09-16T09:55:31.443Z,14140
2016-09-16T09:56:32.368Z,14248
2016-09-16T09:57:33.141Z,13880
2016-09-16T09:58:33.910Z,13788
2016-09-16T09:59:34.701Z,13280
2016-09-16T10:00:35.437Z,12744
2016-09-16T10:01:36.632Z,12640
2016-09-16T10:02:37.472Z,12492
2016-09-16T10:03:38.189Z,12200
2016-09-16T10:04:38.874Z,12296
2016-09-16T10:05:39.543Z,12588
2016-09-16T10:06:40.236Z,12612
2016-09-16T10:07:40.910Z,12620
2016-09-16T10:08:41.580Z,12600
2016-09-16T10:09:42.236Z,12516
2016-09-16T10:10:42.977Z,12196
2016-09-16T10:11:43.659Z,11396
2016-09-16T10:12:44.307Z,10656
2016-09-16T10:13:44.970Z,9956
2016-09-16T10:14:45.630Z,9684
2016-09-16T10:15:46.294Z,9448
2016-09-16T10:16:46.963Z,9300
2016-09-16T10:17:47.636Z,9304
2016-09-16T10:18:48.296Z,9012
2016-09-16T10:19:48.948Z,8416
2016-09-16T10:20:49.603Z,7892
2016-09-16T10:21:50.258Z,7544
2016-09-16T10:22:50.895Z,7728
2016-09-16T10:23:51.564Z,8136
2016-09-16T10:24:52.225Z,8660
2016-09-16T10:25:52.951Z,8640
2016-09-16T10:26:53.572Z,8880
2016-09-16T10:27:54.268Z,9060
2016-09-16T10:28:54.934Z,9468
2016-09-16T10:29:55.604Z,9808
2016-09-16T10:30:56.314Z,9928
2016-09-16T10:31:56.963Z,9864
2016-09-16T10:32:57.641Z,10260
2016-09-16T10:33:58.369Z,10388
2016-09-16T10:34:59.042Z,10748
2016-09-16T10:35:59.804Z,11264
2016-09-16T10:37:00.471Z,11556
2016-09-16T10:38:01.149Z,11744
2016-09-16T10:39:01.847Z,11648
2016-09-16T10:40:02.499Z,11552
2016-09-16T10:41:03.172Z,11556
2016-09-16T10:42:03.852Z,11552
2016-09-16T10:43:04.560Z,11272
2016-09-16T10:44:05.242Z,11296
2016-09-16T10:45:05.916Z,11228
2016-09-16T10:46:06.606Z,11420
2016-09-16T10:47:07.273Z,11636
2016-09-16T10:48:07.959Z,11840
2016-09-16T10:49:08.617Z,11680
2016-09-16T10:50:09.285Z,11332
2016-09-16T10:51:09.956Z,10924
2016-09-16T10:52:10.635Z,10452
2016-09-16T10:53:11.293Z,10068
2016-09-16T10:54:11.985Z,9780
2016-09-16T10:55:12.715Z,9636
2016-09-16T10:56:13.384Z,9600
2016-09-16T10:57:14.061Z,9760
2016-09-16T10:58:14.769Z,10048
2016-09-16T10:59:15.433Z,10244
2016-09-16T11:00:16.162Z,10168
2016-09-16T11:01:16.834Z,9876
2016-09-16T11:02:17.580Z,9484
2016-09-16T11:03:18.241Z,9120
2016-09-16T11:04:18.907Z,9164
2016-09-16T11:05:19.645Z,9380
2016-09-16T11:06:20.324Z,9532
2016-09-16T11:07:21.027Z,9496
2016-09-16T11:08:21.773Z,9368
2016-09-16T11:09:22.491Z,9272
2016-09-16T11:10:23.153Z,9328
2016-09-16T11:11:23.926Z,9404
2016-09-16T11:12:26.379Z,9572
2016-09-16T11:13:28.028Z,9688
2016-09-16T11:14:28.629Z,9684
2016-09-16T11:15:29.291Z,9552
2016-09-16T11:16:31.877Z,9448
2016-09-16T11:17:32.931Z,9504
2016-09-16T11:18:33.894Z,9732
2016-09-16T11:19:34.924Z,10036
2016-09-16T11:20:35.735Z,10188
2016-09-16T11:21:36.562Z,10108
2016-09-16T11:22:37.297Z,9932
2016-09-16T11:23:37.927Z,9844
2016-09-16T11:24:38.587Z,9860
2016-09-16T11:25:39.639Z,9812
2016-09-16T11:26:41.353Z,9624
2016-09-16T11:27:42.121Z,9272
2016-09-16T11:28:43.236Z,8796
2016-09-16T11:29:44.279Z,8148
2016-09-16T11:30:44.977Z,7480
2016-09-16T11:31:45.648Z,6904
2016-09-16T11:32:46.309Z,6532
2016-09-16T11:33:47.028Z,6288
2016-09-16T11:34:47.715Z,6128
2016-09-16T11:35:48.383Z,6072
2016-09-16T11:36:49.105Z,5972
2016-09-16T11:37:50.009Z,5904
2016-09-16T11:38:50.729Z,5928
2016-09-16T11:39:51.380Z,6040
2016-09-16T11:40:52.053Z,6160
2016-09-16T11:41:52.698Z,6324
2016-09-16T11:42:53.374Z,6476
2016-09-16T11:43:54.041Z,6552
2016-09-16T11:44:54.716Z,6524
2016-09-16T11:45:55.386Z,6372
2016-09-16T11:46:56.049Z,6148
2016-09-16T11:47:56.706Z,5836
2016-09-16T11:48:57.416Z,5484
2016-09-16T11:49:58.100Z,5216
2016-09-16T11:50:58.774Z,5072
2016-09-16T11:51:59.564Z,5000
2016-09-16T11:53:00.264Z,5020
2016-09-16T11:54:00.886Z,5080
2016-09-16T11:55:01.541Z,5200
2016-09-16T11:56:02.216Z,5300
2016-09-16T11:57:02.897Z,5380
2016-09-16T11:58:03.578Z,5448
2016-09-16T11:59:04.251Z,5512
2016-09-16T12:00:04.919Z,5560
2016-09-16T12:01:05.603Z,5576
2016-09-16T12:02:06.249Z,5604
2016-09-16T12:03:06.948Z,5536
2016-09-16T12:04:07.609Z,5484
2016-09-16T12:05:08.286Z,5240
2016-09-16T12:06:08.955Z,4940
2016-09-16T12:07:09.622Z,4820
2016-09-16T12:08:10.314Z,4920
2016-09-16T12:09:10.974Z,5052
2016-09-16T12:10:11.643Z,5044
2016-09-16T12:11:12.343Z,5048
2016-09-16T12:12:12.989Z,5192
2016-09-16T12:13:13.659Z,5292
2016-09-16T12:14:14.328Z,5480
2016-09-16T12:15:14.990Z,5692
2016-09-16T12:16:15.670Z,5828
2016-09-16T12:17:16.345Z,5860
2016-09-16T12:18:17.054Z,5804
2016-09-16T12:19:17.749Z,5724
2016-09-16T12:20:18.424Z,5652
2016-09-16T12:21:19.084Z,5604
2016-09-16T12:22:19.743Z,5556
2016-09-16T12:23:20.427Z,5624
2016-09-16T12:24:21.111Z,5684
2016-09-16T12:25:21.777Z,5676
2016-09-16T12:26:22.431Z,5672
2016-09-16T12:27:23.085Z,5588
2016-09-16T12:28:23.738Z,5460
2016-09-16T12:29:24.392Z,5320
2016-09-16T12:30:25.052Z,5228
2016-09-16T12:31:25.753Z,5132
2016-09-16T12:32:26.410Z,4984
2016-09-16T12:33:27.058Z,4728
2016-09-16T12:34:27.735Z,4412
2016-09-16T12:35:28.365Z,4188
2016-09-16T12:36:29.046Z,4088
2016-09-16T12:37:29.706Z,3972
2016-09-16T12:38:30.361Z,3884
2016-09-16T12:39:31.047Z,3788
2016-09-16T12:40:31.682Z,3632
2016-09-16T12:41:32.384Z,3576
2016-09-16T12:42:33.083Z,3628
2016-09-16T12:43:33.770Z,3712
2016-09-16T12:44:34.483Z,3852
2016-09-16T12:45:35.143Z,3972
2016-09-16T12:46:35.818Z,4076
2016-09-16T12:47:36.472Z,4208
2016-09-16T12:48:37.123Z,4372
2016-09-16T12:49:37.800Z,4524
2016-09-16T12:50:38.527Z,4664
2016-09-16T12:51:39.178Z,4784
2016-09-16T12:52:39.820Z,4940
2016-09-16T12:53:40.481Z,5144
2016-09-16T12:54:41.157Z,5368
2016-09-16T12:55:41.833Z,5620
2016-09-16T12:56:42.500Z,5920
2016-09-16T12:57:43.141Z,6248
2016-09-16T12:58:43.795Z,6628
2016-09-16T12:59:44.474Z,7020
2016-09-16T13:00:45.126Z,7396
2016-09-16T13:01:45.778Z,7708
2016-09-16T13:02:46.537Z,8220
2016-09-16T13:03:47.201Z,8612
2016-09-16T13:04:47.881Z,8896
2016-09-16T13:05:48.537Z,9172
2016-09-16T13:06:49.220Z,9340
2016-09-16T13:07:49.868Z,9444
2016-09-16T13:08:50.535Z,9476
2016-09-16T13:09:51.197Z,9456
2016-09-16T13:10:51.852Z,9436
2016-09-16T13:11:52.499Z,9376
2016-09-16T13:12:53.166Z,9272
2016-09-16T13:13:53.834Z,9124
2016-09-16T13:14:54.508Z,8896
2016-09-16T13:15:55.179Z,8744
2016-09-16T13:16:55.854Z,8624
2016-09-16T13:17:56.506Z,8476
2016-09-16T13:18:57.177Z,8360
2016-09-16T13:19:57.832Z,8264
2016-09-16T13:20:58.471Z,8188
2016-09-16T13:21:59.117Z,8112
2016-09-16T13:22:59.764Z,8012
2016-09-16T13:24:00.416Z,7776
2016-09-16T13:25:01.088Z,7544
2016-09-16T13:26:01.732Z,7304
2016-09-16T13:27:02.382Z,7060
2016-09-16T13:28:03.071Z,6892
2016-09-16T13:29:03.717Z,6760
2016-09-16T13:30:04.419Z,6652
2016-09-16T13:31:05.016Z,6512
2016-09-16T13:32:05.680Z,6304
2016-09-16T13:33:06.335Z,6084
2016-09-16T13:34:06.987Z,6008
2016-09-16T13:35:07.646Z,5996
2016-09-16T13:36:08.293Z,5936
2016-09-16T13:37:08.945Z,6172
2016-09-16T13:38:09.639Z,6160
2016-09-16T13:39:10.297Z,5832
2016-09-16T13:40:10.977Z,5392
2016-09-16T13:41:11.648Z,5260
2016-09-16T13:42:12.301Z,5028
2016-09-16T13:43:12.944Z,4932
2016-09-16T13:44:13.611Z,5172
2016-09-16T13:45:14.270Z,5464
2016-09-16T13:46:14.918Z,5684
2016-09-16T13:47:15.581Z,5304
2016-09-16T13:48:16.224Z,4656
2016-09-16T13:49:16.883Z,4408
2016-09-16T13:50:17.548Z,4532